Time;durP1;ratioP1;P1;durP2;ratioP2;P2;SDS_P1;SDS_P2;PMS_P1;PMS_P2;Temp;Humidity;BMP_temperature;BMP_pressure;BME280_temperature;BME280_humidity;BME280_pressure;Samples;Min_cycle;Max_cycle;Signal;HPM_P1;HPM_P2
2022/01/15 00:00:48;;;;;;;17.42;9.35;;;;;;;5.41;62.63;100713.84;4407859;32;32242;-79
2022/01/15 00:03:16;;;;;;;17.60;9.80;;;;;;;5.28;63.10;100724.22;4408285;32;34178;-79
2022/01/15 00:05:45;;;;;;;17.85;9.02;;;;;;;4.99;64.27;100724.34;4410298;32;32486;-79
2022/01/15 00:08:13;;;;;;;18.67;9.60;;;;;;;5.29;63.45;100729.53;4408045;32;33163;-79
2022/01/15 00:10:41;;;;;;;17.00;9.95;;;;;;;4.96;64.26;100732.81;4420661;32;33214;-79
2022/01/15 00:13:20;;;;;;;19.62;9.45;;;;;;;5.14;64.05;100727.47;4420875;32;33857;-79
2022/01/15 00:15:54;;;;;;;19.62;10.10;;;;;;;5.13;64.36;100739.34;4409413;32;32558;-79
2022/01/15 00:18:39;;;;;;;15.43;8.98;;;;;;;5.19;64.02;100736.91;4396934;32;32861;-78
2022/01/15 00:21:11;;;;;;;17.33;9.02;;;;;;;5.07;64.50;100734.50;4411969;32;32304;-79
2022/01/15 00:23:38;;;;;;;15.07;8.65;;;;;;;5.42;62.85;100731.91;4410345;32;32899;-78
2022/01/15 00:26:06;;;;;;;18.42;9.55;;;;;;;5.04;64.26;100745.69;4423306;32;33338;-79
2022/01/15 00:28:34;;;;;;;15.20;8.68;;;;;;;4.91;64.77;100755.00;4423642;32;33239;-79
2022/01/15 00:31:01;;;;;;;17.50;9.10;;;;;;;4.89;65.46;100762.47;4410486;32;34225;-80
2022/01/15 00:33:30;;;;;;;18.77;9.63;;;;;;;4.94;65.20;100768.31;4409667;32;34024;-80
2022/01/15 00:35:58;;;;;;;16.02;9.18;;;;;;;4.96;64.75;100760.00;4409573;32;34877;-80
2022/01/15 00:38:26;;;;;;;15.48;8.70;;;;;;;4.74;65.75;100766.63;4406298;32;34007;-82
2022/01/15 00:40:53;;;;;;;17.98;8.75;;;;;;;4.90;65.09;100760.59;4401516;32;34826;-81
2022/01/15 00:43:21;;;;;;;18.17;9.50;;;;;;;4.74;65.94;100763.91;4412294;32;34571;-82
2022/01/15 00:45:57;;;;;;;15.48;8.68;;;;;;;5.02;65.14;100753.13;4400625;32;34184;-82
2022/01/15 00:48:26;;;;;;;18.45;9.25;;;;;;;4.97;64.86;100759.00;4400123;32;33928;-82
2022/01/15 00:50:53;;;;;;;18.27;8.98;;;;;;;4.66;66.10;100771.06;4403456;32;32496;-81
2022/01/15 00:53:22;;;;;;;16.98;8.63;;;;;;;4.62;66.36;100774.09;4412680;32;34446;-82
2022/01/15 00:55:50;;;;;;;14.40;8.43;;;;;;;4.90;65.61;100771.47;4424569;32;34649;-81
2022/01/15 00:58:18;;;;;;;17.50;8.77;;;;;;;5.00;64.84;100776.91;4404454;32;33966;-82
2022/01/15 01:00:45;;;;;;;15.35;8.80;;;;;;;4.86;65.36;100784.50;4412132;32;32836;-82
2022/01/15 01:03:14;;;;;;;16.05;8.80;;;;;;;5.25;63.91;100784.41;4409931;32;33999;-82
2022/01/15 01:05:42;;;;;;;17.17;9.05;;;;;;;5.43;63.54;100782.63;4410498;32;34083;-83
2022/01/15 01:08:10;;;;;;;16.23;8.40;;;;;;;4.96;64.66;100796.25;4410482;32;31892;-82
2022/01/15 01:10:54;;;;;;;14.38;8.43;;;;;;;5.19;64.09;100802.22;4423682;32;33714;-82
2022/01/15 01:20:03;;;;;;;17.23;7.97;;;;;;;5.22;63.88;100807.31;4412211;32;35426;-83
2022/01/15 01:24:46;;;;;;;14.87;8.63;;;;;;;5.34;63.79;100809.87;4424137;32;32851;-79
2022/01/15 01:27:24;;;;;;;15.07;8.75;;;;;;;4.95;64.72;100808.12;4410567;32;34195;-82
2022/01/15 01:30:07;;;;;;;15.35;8.30;;;;;;;5.21;64.17;100804.75;4410775;32;33429;-77
2022/01/15 01:32:50;;;;;;;14.70;8.07;;;;;;;5.20;64.00;100811.22;4420698;32;33269;-78
2022/01/15 01:35:35;;;;;;;14.02;7.57;;;;;;;4.83;65.30;100809.28;4411161;32;34290;-80
2022/01/15 01:38:51;;;;;;;16.20;8.55;;;;;;;4.57;66.65;100816.28;4410897;32;32673;-77
2022/01/15 01:40:58;;;;;;;17.00;8.65;;;;;;;4.97;65.10;100807.97;4403844;32;34047;-78
2022/01/15 01:46:49;;;;;;;18.73;9.02;;;;;;;4.35;67.56;100806.59;4422188;32;35138;-77
2022/01/15 01:49:02;;;;;;;14.07;7.93;;;;;;;4.57;66.86;100797.25;4400354;32;32596;-78
2022/01/15 01:51:33;;;;;;;14.65;8.35;;;;;;;4.36;67.34;100793.84;4409106;32;32040;-78
2022/01/15 01:54:03;;;;;;;15.63;8.40;;;;;;;4.67;66.20;100787.25;4408261;32;33164;-78
2022/01/15 01:56:34;;;;;;;15.48;8.73;;;;;;;4.80;65.92;100786.94;4408981;32;35207;-79
2022/01/15 01:59:06;;;;;;;14.48;8.30;;;;;;;4.84;65.54;100788.38;4421209;32;34468;-78
2022/01/15 02:01:34;;;;;;;17.77;9.35;;;;;;;4.62;66.23;100789.53;4408794;32;33155;-79
2022/01/15 02:04:04;;;;;;;15.10;8.43;;;;;;;4.81;65.70;100791.38;4421116;32;33716;-77
2022/01/15 02:06:32;;;;;;;15.27;8.10;;;;;;;4.71;66.08;100799.56;4408560;32;35064;-79
2022/01/15 02:09:04;;;;;;;16.33;8.65;;;;;;;4.45;66.95;100793.88;4408382;32;33977;-78
2022/01/15 02:11:34;;;;;;;14.73;8.15;;;;;;;4.99;64.99;100788.78;4409142;32;33125;-78
2022/01/15 02:14:02;;;;;;;15.13;7.55;;;;;;;5.11;64.09;100793.06;4410022;32;34422;-79
2022/01/15 02:16:30;;;;;;;14.23;7.40;;;;;;;5.02;64.02;100794.78;4434918;32;34551;-79
2022/01/15 02:18:58;;;;;;;14.07;8.07;;;;;;;5.14;63.92;100795.50;4396856;32;33329;-79
2022/01/15 02:24:12;;;;;;;15.52;8.40;;;;;;;4.88;64.47;100797.97;4424522;32;32222;-78
2022/01/15 02:26:40;;;;;;;15.30;7.97;;;;;;;4.84;64.92;100796.53;4408736;32;33939;-78
2022/01/15 02:29:08;;;;;;;13.75;8.32;;;;;;;5.03;64.38;100790.22;4409721;32;34674;-78
2022/01/15 02:31:41;;;;;;;14.65;7.55;;;;;;;5.00;64.22;100787.78;4409889;32;33369;-78
2022/01/15 02:34:08;;;;;;;15.77;8.10;;;;;;;4.60;65.43;100786.09;4421990;32;34103;-78
2022/01/15 02:36:36;;;;;;;17.42;8.48;;;;;;;4.87;64.74;100798.97;4410021;32;35358;-78
2022/01/15 02:39:05;;;;;;;14.05;7.50;;;;;;;4.66;65.10;100795.53;4422094;32;33920;-78
2022/01/15 02:41:35;;;;;;;14.45;7.25;;;;;;;5.08;63.87;100793.34;4409313;32;33290;-79
2022/01/15 02:44:05;;;;;;;17.55;8.70;;;;;;;5.20;63.01;100795.72;4409598;32;33620;-78
2022/01/15 02:49:05;;;;;;;14.73;8.13;;;;;;;5.36;62.52;100786.94;4434763;32;34732;-78
2022/01/15 02:51:36;;;;;;;15.68;8.00;;;;;;;5.30;62.62;100785.69;4409102;32;34132;-78
2022/01/15 02:54:05;;;;;;;13.93;7.93;;;;;;;5.23;62.91;100784.56;4409219;32;33801;-78
2022/01/15 02:56:37;;;;;;;15.80;8.45;;;;;;;5.29;62.67;100789.41;4409683;32;34541;-78
2022/01/15 02:59:09;;;;;;;16.62;8.80;;;;;;;5.14;62.92;100776.44;4409612;32;33953;-79
2022/01/15 03:01:40;;;;;;;16.75;8.20;;;;;;;4.92;63.57;100783.94;4408811;32;31890;-78
2022/01/15 03:04:09;;;;;;;15.90;8.50;;;;;;;4.86;63.69;100776.34;4409401;32;34498;-78
2022/01/15 03:06:39;;;;;;;15.27;8.90;;;;;;;5.00;63.32;100779.63;4395435;32;33966;-78
2022/01/15 03:09:07;;;;;;;14.45;8.43;;;;;;;4.80;63.87;100767.91;4408471;32;33455;-79
2022/01/15 03:11:35;;;;;;;15.38;8.48;;;;;;;4.71;64.34;100780.53;4409361;32;34017;-78
2022/01/15 03:14:05;;;;;;;15.40;8.25;;;;;;;4.61;64.60;100774.22;4396241;32;33359;-78
2022/01/15 03:16:36;;;;;;;15.57;8.82;;;;;;;4.66;64.53;100766.50;4420883;32;35564;-78
2022/01/15 03:19:05;;;;;;;14.73;8.18;;;;;;;4.60;64.62;100770.66;4410699;32;34884;-78
2022/01/15 03:21:34;;;;;;;16.60;8.57;;;;;;;4.77;64.06;100769.06;4423010;32;33102;-79
2022/01/15 03:24:02;;;;;;;16.05;8.63;;;;;;;4.69;64.13;100774.38;4398473;32;32359;-78
2022/01/15 03:26:30;;;;;;;15.38;8.70;;;;;;;4.63;64.13;100770.38;4410234;32;34278;-78
2022/01/15 03:28:57;;;;;;;13.98;7.78;;;;;;;4.98;62.91;100774.31;4410270;32;33324;-78
2022/01/15 03:31:25;;;;;;;15.25;8.23;;;;;;;4.48;64.79;100784.56;4410573;32;32291;-78
2022/01/15 03:33:53;;;;;;;14.77;8.23;;;;;;;4.66;64.39;100785.53;4410416;32;33249;-78
2022/01/15 03:36:21;;;;;;;14.65;8.10;;;;;;;4.91;63.32;100782.22;4435845;32;35135;-79
2022/01/15 03:38:49;;;;;;;13.93;7.87;;;;;;;5.01;63.09;100784.91;4410392;32;33892;-79
2022/01/15 03:41:16;;;;;;;12.45;7.10;;;;;;;4.75;63.65;100783.81;4435600;32;33416;-78
2022/01/15 03:43:44;;;;;;;14.80;8.30;;;;;;;4.66;63.80;100787.38;4410848;32;32192;-78
2022/01/15 03:46:12;;;;;;;13.90;7.50;;;;;;;4.68;64.18;100794.41;4435616;32;35320;-79
2022/01/15 03:48:40;;;;;;;11.75;7.10;;;;;;;4.56;64.10;100793.69;4410289;32;34085;-78
2022/01/15 03:51:08;;;;;;;14.85;7.85;;;;;;;4.83;63.39;100801.12;4410619;32;33070;-78
2022/01/15 03:53:35;;;;;;;13.65;7.37;;;;;;;5.04;62.67;100797.38;4410276;32;34713;-78
2022/01/15 03:56:03;;;;;;;14.07;7.82;;;;;;;5.16;62.25;100799.78;4410495;32;35123;-78
2022/01/15 03:58:31;;;;;;;14.87;7.53;;;;;;;5.37;61.56;100815.03;4410346;32;32556;-78
2022/01/15 04:00:59;;;;;;;13.55;7.43;;;;;;;5.29;61.36;100816.63;4423748;32;31866;-78
2022/01/15 04:03:27;;;;;;;15.40;8.02;;;;;;;5.14;61.86;100823.56;4410498;32;34245;-78
2022/01/15 04:05:55;;;;;;;14.50;8.30;;;;;;;5.15;61.53;100830.72;4410354;32;34211;-78
2022/01/15 04:08:25;;;;;;;14.60;7.20;;;;;;;5.40;60.64;100842.81;4410564;32;34587;-78
2022/01/15 04:10:55;;;;;;;14.50;7.90;;;;;;;5.44;60.67;100833.34;4410764;32;34071;-78
2022/01/15 04:13:23;;;;;;;14.57;7.95;;;;;;;5.16;61.55;100837.03;4410672;32;33500;-78
2022/01/15 04:15:52;;;;;;;16.23;7.93;;;;;;;5.13;61.56;100837.31;4436073;32;34359;-78
2022/01/15 04:18:22;;;;;;;14.87;7.62;;;;;;;5.08;61.72;100845.06;4422683;32;32547;-79
2022/01/15 04:20:51;;;;;;;14.40;7.60;;;;;;;5.41;60.96;100843.66;4411138;32;33381;-79
2022/01/15 04:23:19;;;;;;;13.00;7.40;;;;;;;5.24;61.50;100848.84;4410977;32;34596;-79
2022/01/15 04:25:46;;;;;;;13.68;7.65;;;;;;;5.29;61.05;100846.56;4422773;32;33136;-78
2022/01/15 04:28:14;;;;;;;13.45;7.45;;;;;;;5.15;61.54;100849.75;4410523;32;32581;-82
2022/01/15 04:30:48;;;;;;;12.88;7.32;;;;;;;5.36;61.03;100846.84;4411267;32;34021;-77
2022/01/15 04:33:18;;;;;;;15.73;8.43;;;;;;;5.13;61.55;100842.75;4410270;32;33786;-78
2022/01/15 04:35:45;;;;;;;13.48;7.70;;;;;;;5.15;61.49;100857.94;4410725;32;34534;-78
2022/01/15 04:38:14;;;;;;;14.75;8.15;;;;;;;4.74;63.19;100840.06;4409656;32;33293;-78
2022/01/15 04:40:41;;;;;;;14.77;7.40;;;;;;;4.80;62.99;100844.91;4410365;32;31815;-78
2022/01/15 04:43:12;;;;;;;13.60;7.93;;;;;;;4.52;64.34;100848.50;4410195;32;32364;-77
2022/01/15 04:45:39;;;;;;;13.60;7.35;;;;;;;4.39;63.96;100839.78;4410333;32;34559;-78
2022/01/15 04:48:10;;;;;;;14.07;7.55;;;;;;;4.03;65.81;100849.41;4410155;32;34637;-78
2022/01/15 04:50:38;;;;;;;15.10;7.68;;;;;;;4.18;65.26;100848.88;4422835;32;33413;-78
2022/01/15 04:53:09;;;;;;;16.77;7.85;;;;;;;3.70;66.96;100846.03;4409907;32;33911;-78
2022/01/15 04:55:37;;;;;;;13.13;7.65;;;;;;;4.17;65.73;100855.31;4435810;32;34608;-77
2022/01/15 04:58:06;;;;;;;12.13;6.87;;;;;;;4.23;65.29;100857.47;4410153;32;34754;-78
2022/01/15 05:00:34;;;;;;;12.50;6.75;;;;;;;4.40;64.44;100846.94;4397306;32;33256;-78
2022/01/15 05:03:02;;;;;;;13.27;6.65;;;;;;;4.26;65.16;100845.47;4410092;32;32262;-78
2022/01/15 05:05:33;;;;;;;14.87;7.50;;;;;;;4.41;64.70;100854.06;4410067;32;34395;-78
2022/01/15 05:08:05;;;;;;;14.15;7.32;;;;;;;4.56;63.87;100852.62;4410047;32;33714;-78
2022/01/15 05:10:33;;;;;;;13.20;7.87;;;;;;;4.75;63.51;100857.22;4410314;32;33307;-77
2022/01/15 05:13:02;;;;;;;13.38;7.10;;;;;;;4.34;64.21;100842.91;4409815;32;32255;-78
2022/01/15 05:15:32;;;;;;;15.30;8.15;;;;;;;4.70;63.49;100857.66;4409777;32;34285;-77
2022/01/15 05:18:00;;;;;;;15.10;8.10;;;;;;;4.30;65.14;100850.47;4422576;32;33941;-78
2022/01/15 05:20:28;;;;;;;16.90;7.65;;;;;;;4.39;64.86;100856.94;4410039;32;33170;-78
2022/01/15 05:22:55;;;;;;;14.35;8.13;;;;;;;4.48;64.20;100860.66;4422667;32;33992;-77
2022/01/15 05:25:23;;;;;;;13.65;7.60;;;;;;;3.89;66.14;100859.69;4409524;32;34255;-78
2022/01/15 05:27:51;;;;;;;15.63;7.85;;;;;;;4.32;64.70;100849.47;4409782;32;32467;-78
2022/01/15 05:30:19;;;;;;;14.55;7.22;;;;;;;4.47;64.39;100857.09;4410274;32;33478;-78
2022/01/15 05:32:47;;;;;;;13.48;7.55;;;;;;;3.55;67.55;100850.97;4410023;32;32111;-78
2022/01/15 05:35:14;;;;;;;14.98;7.20;;;;;;;3.94;66.65;100851.09;4422891;32;34400;-77
2022/01/15 05:37:42;;;;;;;13.95;7.25;;;;;;;3.57;67.39;100850.81;4409468;32;32482;-78
2022/01/15 05:40:10;;;;;;;19.02;9.40;;;;;;;3.97;66.30;100861.69;4412783;32;33111;-77
2022/01/15 05:42:38;;;;;;;22.77;11.75;;;;;;;4.16;65.25;100855.44;4402250;32;32297;-78
2022/01/15 05:45:06;;;;;;;15.95;9.07;;;;;;;4.24;65.27;100863.78;4409650;32;35309;-77
2022/01/15 05:47:34;;;;;;;15.27;7.60;;;;;;;4.23;64.81;100873.78;4393850;32;32267;-76
2022/01/15 05:50:02;;;;;;;15.05;7.47;;;;;;;4.31;64.92;100867.66;4394987;32;31846;-78
2022/01/15 05:52:30;;;;;;;12.13;7.10;;;;;;;4.12;65.15;100886.62;4422073;32;33717;-76
2022/01/15 05:54:58;;;;;;;14.07;6.62;;;;;;;4.36;64.35;100878.97;4409485;32;33970;-77
2022/01/15 05:57:28;;;;;;;14.65;7.40;;;;;;;4.06;65.20;100877.16;4422403;32;35087;-76
2022/01/15 05:59:58;;;;;;;12.80;7.25;;;;;;;4.41;64.32;100886.69;4409369;32;31818;-78
2022/01/15 06:02:26;;;;;;;16.52;8.07;;;;;;;4.42;64.05;100891.13;4409932;32;33778;-76
2022/01/15 06:04:54;;;;;;;13.27;7.37;;;;;;;4.44;63.66;100880.97;4409299;32;34356;-76
2022/01/15 06:07:22;;;;;;;14.10;7.12;;;;;;;4.05;65.51;100890.87;4406592;32;34073;-75
2022/01/15 06:09:50;;;;;;;15.30;7.95;;;;;;;4.13;64.98;100897.34;4394354;32;33471;-76
2022/01/15 06:12:27;;;;;;;17.92;9.00;;;;;;;4.54;63.59;100896.31;4409151;32;34602;-76
2022/01/15 06:14:55;;;;;;;18.85;8.52;;;;;;;4.44;64.09;100900.88;4410693;32;34348;-76
2022/01/15 06:17:23;;;;;;;18.85;9.38;;;;;;;4.39;63.83;100892.28;4409378;32;33676;-76
2022/01/15 06:19:51;;;;;;;20.12;8.70;;;;;;;4.29;64.23;100899.53;4408964;32;33029;-76
2022/01/15 06:22:18;;;;;;;15.15;7.50;;;;;;;4.20;64.52;100909.38;4408529;32;33847;-77
2022/01/15 06:24:46;;;;;;;13.13;7.18;;;;;;;4.46;63.75;100911.59;4409081;32;34445;-74
2022/01/15 06:27:16;;;;;;;12.80;7.03;;;;;;;4.22;64.54;100907.38;4408877;32;32431;-76
2022/01/15 06:29:43;;;;;;;16.05;7.32;;;;;;;3.96;65.20;100911.56;4409025;32;31924;-76
2022/01/15 06:32:12;;;;;;;18.02;7.68;;;;;;;4.26;64.24;100908.81;4396349;32;32183;-75
2022/01/15 06:34:44;;;;;;;14.15;6.90;;;;;;;3.67;66.17;100913.31;4421799;32;35227;-76
2022/01/15 06:37:15;;;;;;;14.75;8.35;;;;;;;3.45;67.58;100920.59;4409229;32;34435;-77
2022/01/15 06:39:43;;;;;;;15.50;6.93;;;;;;;3.97;65.48;100916.00;4421545;32;34086;-76
2022/01/15 06:42:11;;;;;;;18.40;7.55;;;;;;;3.89;65.63;100913.12;4408783;32;32204;-76
2022/01/15 06:44:39;;;;;;;13.32;7.10;;;;;;;4.26;64.56;100922.41;4408901;32;33906;-77
2022/01/15 06:47:07;;;;;;;13.77;7.65;;;;;;;3.77;66.19;100914.22;4409077;32;33795;-76
2022/01/15 06:49:40;;;;;;;13.43;7.85;;;;;;;3.88;65.44;100911.41;4421467;32;33451;-76
2022/01/15 06:52:10;;;;;;;15.57;7.87;;;;;;;3.86;66.30;100910.69;4407799;32;32472;-76
2022/01/15 06:54:41;;;;;;;17.17;7.90;;;;;;;4.13;66.37;100926.38;4408853;32;35104;-77
2022/01/15 06:57:09;;;;;;;15.30;8.07;;;;;;;3.94;66.50;100922.56;4408658;32;32415;-77
2022/01/15 06:59:37;;;;;;;14.57;7.22;;;;;;;4.03;66.25;100933.59;4408747;32;31773;-77
2022/01/15 07:02:07;;;;;;;17.50;7.87;;;;;;;3.92;65.84;100930.00;4408905;32;33592;-76
2022/01/15 07:04:35;;;;;;;13.95;7.15;;;;;;;4.57;63.47;100928.63;4408818;32;33928;-77
2022/01/15 07:07:05;;;;;;;23.05;10.68;;;;;;;4.50;63.43;100930.19;4408637;32;34434;-76
2022/01/15 07:09:38;;;;;;;26.17;10.07;;;;;;;4.50;63.70;100937.50;4422857;32;33318;-76
2022/01/15 07:12:07;;;;;;;16.25;8.32;;;;;;;3.79;65.88;100933.94;4408595;32;34523;-76
2022/01/15 07:14:34;;;;;;;14.13;7.75;;;;;;;3.94;65.16;100938.00;4408659;32;34691;-77
2022/01/15 07:17:03;;;;;;;16.33;8.40;;;;;;;4.20;64.35;100939.25;4393294;32;33915;-77
2022/01/15 07:19:31;;;;;;;16.20;7.80;;;;;;;3.86;65.54;100936.00;4393252;32;33412;-76
2022/01/15 07:22:01;;;;;;;13.38;7.00;;;;;;;4.13;64.55;100934.50;4415875;32;33032;-75
2022/01/15 07:24:29;;;;;;;14.25;7.12;;;;;;;3.56;66.41;100949.53;4408575;32;32923;-75
2022/01/15 07:26:58;;;;;;;17.58;7.65;;;;;;;3.93;65.72;100947.16;4421080;32;34612;-77
2022/01/15 07:29:36;;;;;;;14.73;7.45;;;;;;;3.87;65.78;100953.16;4395827;32;31967;-76
2022/01/15 07:32:08;;;;;;;12.93;7.20;;;;;;;4.01;65.10;100947.31;4408459;32;32100;-76
2022/01/15 07:34:38;;;;;;;15.57;7.35;;;;;;;3.94;65.12;100941.56;4409228;32;35277;-77
2022/01/15 07:37:14;;;;;;;15.25;7.18;;;;;;;3.93;65.07;100947.16;4421051;32;33864;-76
2022/01/15 07:39:42;;;;;;;18.67;8.48;;;;;;;3.81;65.59;100946.41;4407902;32;33133;-78
2022/01/15 07:42:11;;;;;;;14.23;7.40;;;;;;;3.92;65.44;100948.13;4408281;32;32131;-77
2022/01/15 07:44:42;;;;;;;14.35;7.60;;;;;;;3.52;66.14;100948.06;4407910;32;33634;-79
2022/01/15 07:47:15;;;;;;;12.60;7.18;;;;;;;3.75;65.50;100935.22;4419557;32;33928;-77
2022/01/15 07:49:46;;;;;;;13.40;6.57;;;;;;;3.52;67.09;100943.50;4406417;32;32708;-78
2022/01/15 07:52:24;;;;;;;13.95;7.10;;;;;;;3.67;66.45;100959.47;4406005;32;33874;-78
2022/01/15 07:54:58;;;;;;;15.52;7.43;;;;;;;3.66;66.36;100960.44;4406274;32;34291;-80
2022/01/15 07:57:57;;;;;;;14.00;7.07;;;;;;;3.40;67.36;100960.84;4408159;32;32023;-78
2022/01/15 08:00:28;;;;;;;13.27;6.90;;;;;;;3.45;67.07;100960.44;4407163;32;32545;-80
2022/01/15 08:03:11;;;;;;;15.55;7.35;;;;;;;3.70;66.22;100967.34;4408726;32;34649;-79
2022/01/15 08:06:00;;;;;;;14.60;6.97;;;;;;;3.76;66.22;100970.38;4409364;32;33004;-79
2022/01/15 08:08:45;;;;;;;14.80;6.35;;;;;;;3.74;65.92;100971.50;4410184;32;33406;-78
2022/01/15 08:11:26;;;;;;;14.10;5.90;;;;;;;3.33;67.34;100978.63;4398939;32;31970;-78
2022/01/15 08:14:03;;;;;;;14.05;6.87;;;;;;;3.60;65.93;100976.28;4398608;32;32336;-78
2022/01/15 08:16:46;;;;;;;14.82;6.40;;;;;;;3.72;65.53;100985.22;4407215;32;34720;-79
2022/01/15 08:19:25;;;;;;;14.98;6.57;;;;;;;4.09;64.42;100984.69;4407895;32;34435;-78
2022/01/15 08:22:29;;;;;;;26.08;11.02;;;;;;;4.30;63.63;100972.78;4409950;32;33684;-79
2022/01/15 08:25:06;;;;;;;20.40;9.05;;;;;;;4.32;63.31;100982.63;4397838;32;32235;-80
2022/01/15 08:27:39;;;;;;;24.85;9.25;;;;;;;4.46;62.93;100985.84;4386948;32;34567;-79
2022/01/15 08:30:15;;;;;;;15.88;5.65;;;;;;;4.04;63.07;100995.94;4398059;32;32465;-79
2022/01/15 08:32:51;;;;;;;17.12;6.37;;;;;;;4.16;63.33;100992.16;4410104;32;32377;-78
2022/01/15 08:35:54;;;;;;;14.68;6.30;;;;;;;4.09;63.30;100999.13;4410382;32;33191;-78
2022/01/15 08:39:08;;;;;;;18.08;7.40;;;;;;;4.62;61.93;100988.00;4410369;32;33487;-79
2022/01/15 08:41:49;;;;;;;14.38;6.53;;;;;;;4.66;61.45;100999.47;4398994;32;32488;-79
2022/01/15 08:44:26;;;;;;;17.70;7.70;;;;;;;4.87;60.64;100995.66;4407603;32;32869;-77
2022/01/15 08:47:43;;;;;;;30.92;12.82;;;;;;;4.74;60.87;100995.06;4402139;32;32912;-78
2022/01/15 08:50:23;;;;;;;22.02;10.32;;;;;;;4.73;61.29;101003.34;4410723;32;34300;-78
2022/01/15 08:53:28;;;;;;;20.35;7.30;;;;;;;5.21;67.45;101003.41;4411629;32;34180;-77
2022/01/15 08:56:11;;;;;;;13.25;5.70;;;;;;;5.11;59.69;100989.84;4409185;32;32324;-77
2022/01/15 08:58:47;;;;;;;15.88;5.47;;;;;;;4.68;60.75;101003.78;4395973;32;32515;-77
2022/01/15 09:01:44;;;;;;;15.52;6.65;;;;;;;4.84;60.46;100998.66;4425963;32;34609;-77
2022/01/15 09:04:19;;;;;;;11.85;4.78;;;;;;;5.13;59.48;101000.56;4415282;32;34064;-77
2022/01/15 09:07:04;;;;;;;13.43;5.65;;;;;;;4.96;59.79;100999.41;4404199;32;31765;-77
2022/01/15 09:10:08;;;;;;;11.15;4.65;;;;;;;5.35;58.97;101003.00;4422534;32;34366;-77
2022/01/15 09:13:08;;;;;;;17.15;5.43;;;;;;;5.11;58.71;100999.84;4407242;32;34277;-77
2022/01/15 09:15:45;;;;;;;13.00;4.90;;;;;;;5.38;58.33;100996.41;4419322;32;34640;-78
2022/01/15 09:18:20;;;;;;;16.15;4.87;;;;;;;5.45;57.83;100987.53;4396094;32;32837;-77
2022/01/15 09:20:51;;;;;;;15.82;6.03;;;;;;;5.19;58.54;100991.84;4416002;32;33681;-77
2022/01/15 09:23:20;;;;;;;19.83;8.15;;;;;;;5.26;58.90;100982.06;4410442;32;35278;-78
2022/01/15 09:25:57;;;;;;;14.50;5.10;;;;;;;4.96;58.66;100996.69;4410534;32;34077;-77
2022/01/15 09:31:18;;;;;;;11.12;3.58;;;;;;;5.01;57.79;100979.94;4412410;32;34457;-77
2022/01/15 09:33:51;;;;;;;16.65;4.15;;;;;;;5.14;57.16;100983.25;4409976;32;32820;-78
2022/01/15 09:36:21;;;;;;;12.95;3.95;;;;;;;5.44;56.66;100984.94;4423841;32;34780;-77
2022/01/15 09:38:55;;;;;;;10.85;5.15;;;;;;;5.42;56.61;100982.34;4422522;32;33275;-77
2022/01/15 09:41:26;;;;;;;13.13;4.18;;;;;;;5.47;55.92;100995.53;4396011;32;33167;-77
2022/01/15 09:43:58;;;;;;;13.30;4.53;;;;;;;5.49;55.92;100994.41;4422993;32;34511;-78
2022/01/15 09:46:35;;;;;;;14.13;4.57;;;;;;;5.50;55.44;100987.94;4397169;32;34208;-77
2022/01/15 09:49:10;;;;;;;14.57;4.70;;;;;;;5.72;54.38;100973.16;4410412;32;33468;-77
2022/01/15 09:51:45;;;;;;;14.65;5.80;;;;;;;5.70;54.87;100982.47;4410980;32;33768;-77
2022/01/15 09:54:15;;;;;;;16.60;7.15;;;;;;;5.76;54.76;100984.62;4410617;32;34376;-77
2022/01/15 09:56:52;;;;;;;19.33;5.87;;;;;;;5.73;54.01;100974.03;4410008;32;33722;-77
2022/01/15 09:59:24;;;;;;;11.38;3.28;;;;;;;5.75;53.65;100969.28;4410436;32;31833;-77
2022/01/15 10:01:57;;;;;;;9.63;3.30;;;;;;;5.49;53.14;100967.16;4409814;32;34604;-76
2022/01/15 10:04:31;;;;;;;14.23;3.35;;;;;;;5.76;53.37;100957.38;4409360;32;33854;-78
2022/01/15 10:07:08;;;;;;;8.68;3.05;;;;;;;5.70;53.08;100957.97;4393539;32;32040;-77
2022/01/15 10:09:41;;;;;;;13.43;3.78;;;;;;;6.00;51.91;100963.19;4406075;32;33244;-79
2022/01/15 10:12:11;;;;;;;19.05;3.65;;;;;;;6.00;51.70;100960.47;4407016;32;33602;-78
2022/01/15 10:14:47;;;;;;;9.77;3.83;;;;;;;5.99;51.64;100964.22;4393474;32;34040;-78
2022/01/15 10:17:35;;;;;;;18.83;8.60;;;;;;;6.02;51.72;100952.16;4382360;32;34810;-77
2022/01/15 10:20:09;;;;;;;10.82;3.10;;;;;;;5.92;52.38;100947.59;4394731;32;33266;-78
2022/01/15 10:22:45;;;;;;;12.77;3.55;;;;;;;5.79;51.65;100952.50;4392664;32;33231;-78
2022/01/15 10:25:21;;;;;;;10.20;4.82;;;;;;;6.00;51.15;100951.44;4406889;32;34320;-77
2022/01/15 10:27:53;;;;;;;13.48;5.93;;;;;;;5.72;51.19;100950.50;4405670;32;33781;-78
2022/01/15 10:30:30;;;;;;;11.55;3.78;;;;;;;5.91;51.04;100953.19;4408085;32;33323;-77
2022/01/15 10:33:05;;;;;;;10.68;3.58;;;;;;;5.97;50.96;100955.31;4407960;32;33788;-76
2022/01/15 10:35:42;;;;;;;12.95;5.00;;;;;;;5.88;50.40;100939.84;4419394;32;34860;-77
2022/01/15 10:38:18;;;;;;;13.35;3.92;;;;;;;5.75;50.72;100950.22;4406532;32;34459;-78
2022/01/15 10:40:55;;;;;;;8.93;3.08;;;;;;;5.93;50.35;100945.72;4402831;32;31868;-78
2022/01/15 10:43:33;;;;;;;9.35;3.12;;;;;;;6.19;49.64;100927.69;4406782;32;33599;-77
2022/01/15 10:46:03;;;;;;;8.15;2.97;;;;;;;6.71;48.67;100938.87;4407402;32;32628;-78
2022/01/15 10:48:35;;;;;;;8.75;3.10;;;;;;;6.70;48.79;100939.03;4381497;32;33345;-79
2022/01/15 10:51:11;;;;;;;12.50;6.37;;;;;;;6.53;48.20;100936.13;4406728;32;33306;-77
2022/01/15 10:53:41;;;;;;;23.42;10.10;;;;;;;6.85;48.57;100943.81;4406521;32;33228;-77
2022/01/15 10:56:10;;;;;;;31.20;13.80;;;;;;;6.80;47.81;100929.78;4406519;32;35392;-75
2022/01/15 10:58:39;;;;;;;17.87;6.47;;;;;;;6.62;48.89;100934.34;4406375;32;34535;-75
2022/01/15 11:01:07;;;;;;;13.02;4.68;;;;;;;6.64;47.34;100935.03;4418932;32;33447;-75
2022/01/15 11:03:40;;;;;;;10.20;4.25;;;;;;;6.76;47.17;100927.50;4406557;32;32259;-75
2022/01/15 11:06:11;;;;;;;9.48;3.40;;;;;;;6.90;46.94;100938.75;4394085;32;34588;-75
2022/01/15 11:08:42;;;;;;;11.60;3.87;;;;;;;6.70;46.58;100923.53;4406339;32;33421;-75
2022/01/15 11:11:14;;;;;;;9.77;3.45;;;;;;;6.85;46.21;100930.16;4394274;32;33410;-76
2022/01/15 11:13:47;;;;;;;17.25;5.62;;;;;;;7.00;45.80;100916.84;4406418;32;33749;-76
2022/01/15 11:16:17;;;;;;;10.27;4.43;;;;;;;6.96;46.24;100914.59;4418586;32;34391;-75
2022/01/15 11:18:49;;;;;;;11.27;3.15;;;;;;;7.14;46.07;100918.19;4406114;32;32420;-78
2022/01/15 11:21:19;;;;;;;13.88;6.82;;;;;;;7.13;45.25;100913.72;4406307;32;33467;-78
2022/01/15 11:23:50;;;;;;;14.40;6.78;;;;;;;7.27;45.54;100907.69;4406264;32;33450;-78
2022/01/15 11:26:26;;;;;;;11.02;3.90;;;;;;;7.03;46.07;100904.75;4406456;32;35317;-78
2022/01/15 11:28:55;;;;;;;;;;;;;;;7.19;45.18;100904.87;4394136;32;33374;-78
2022/01/15 11:31:27;;;;;;;10.18;3.45;;;;;;;7.24;45.31;100900.66;4406568;32;32776;-78
2022/01/15 11:33:59;;;;;;;7.62;2.65;;;;;;;6.67;46.65;100912.91;4381301;32;32301;-78
2022/01/15 11:36:36;;;;;;;12.15;3.80;;;;;;;6.90;46.28;100914.19;4396667;32;33449;-78
2022/01/15 11:39:09;;;;;;;8.95;3.33;;;;;;;7.12;46.86;100903.81;4396004;32;33623;-78
2022/01/15 11:42:04;;;;;;;9.93;3.85;;;;;;;6.85;47.77;100919.25;4414167;32;32867;-78
2022/01/15 11:44:33;;;;;;;8.75;2.97;;;;;;;7.12;48.05;100926.53;4406639;32;33557;-77
2022/01/15 11:47:17;;;;;;;9.13;3.37;;;;;;;6.90;48.30;100916.91;4397051;32;34743;-77
2022/01/15 11:49:47;;;;;;;10.02;3.30;;;;;;;6.85;48.46;100916.53;4383555;32;34765;-78
2022/01/15 11:52:19;;;;;;;12.35;3.25;;;;;;;7.11;48.80;100916.62;4420387;32;33346;-78
2022/01/15 11:54:58;;;;;;;12.95;3.62;;;;;;;6.87;48.04;100910.91;4408947;32;33566;-78
2022/01/15 11:57:35;;;;;;;8.63;3.10;;;;;;;7.09;47.82;100915.91;4409702;32;34323;-78
2022/01/15 12:00:06;;;;;;;11.60;3.83;;;;;;;7.13;47.23;100905.53;4420950;32;34613;-78
2022/01/15 12:02:41;;;;;;;8.23;3.42;;;;;;;7.01;47.98;100904.06;4395480;32;32820;-77
2022/01/15 12:05:15;;;;;;;10.73;3.33;;;;;;;7.01;48.28;100901.34;4392868;32;33766;-77
2022/01/15 12:07:47;;;;;;;9.32;3.20;;;;;;;7.44;47.65;100895.88;4420840;32;32995;-78
2022/01/15 12:10:18;;;;;;;19.83;8.35;;;;;;;6.98;48.42;100894.31;4398182;32;32592;-77